Time;durP1;ratioP1;P1;durP2;ratioP2;P2;SDS_P1;SDS_P2;PMS_P1;PMS_P2;Temp;Humidity;BMP_temperature;BMP_pressure;BME280_temperature;BME280_humidity;BME280_pressure;Samples;Min_cycle;Max_cycle;Signal;HPM_P1;HPM_P2
2022/06/14 00:00:54;;;;;;;4.73;2.67;;;11.30;99.90;;;;;;5073435;28;20182;-68
2022/06/14 00:03:31;;;;;;;6.37;2.90;;;11.20;99.90;;;;;;5074280;28;20286;-68
2022/06/14 00:05:59;;;;;;;5.33;2.97;;;11.10;99.90;;;;;;5075523;28;20235;-68
2022/06/14 00:08:27;;;;;;;6.77;3.00;;;11.10;99.90;;;;;;5074602;28;20707;-68
2022/06/14 00:10:54;;;;;;;3.17;2.70;;;11.10;99.90;;;;;;5073909;28;20165;-68
2022/06/14 00:13:21;;;;;;;3.53;2.93;;;11.00;99.90;;;;;;5072751;28;20674;-68
2022/06/14 00:15:47;;;;;;;3.00;2.80;;;10.80;99.90;;;;;;5072813;28;20246;-68
2022/06/14 00:18:14;;;;;;;3.53;2.90;;;10.70;99.90;;;;;;5074616;28;20166;-68
2022/06/14 00:20:40;;;;;;;3.10;2.80;;;10.70;99.90;;;;;;5072867;28;20177;-68
2022/06/14 00:23:06;;;;;;;3.80;2.87;;;10.60;99.90;;;;;;5074269;28;20194;-68
2022/06/14 00:25:38;;;;;;;3.40;3.10;;;10.70;99.90;;;;;;5073628;28;20520;-68
2022/06/14 00:28:06;;;;;;;4.30;3.13;;;10.80;99.90;;;;;;5073823;28;20182;-68
2022/06/14 00:30:32;;;;;;;3.77;2.97;;;10.70;99.90;;;;;;5073944;28;20165;-68
2022/06/14 00:32:58;;;;;;;4.27;2.80;;;10.70;99.90;;;;;;5073588;28;20200;-68
2022/06/14 00:35:24;;;;;;;4.90;2.90;;;10.70;99.90;;;;;;5073957;28;20248;-68
2022/06/14 00:37:50;;;;;;;3.40;3.10;;;10.80;99.90;;;;;;5073721;28;20235;-68
2022/06/14 00:40:20;;;;;;;5.90;3.00;;;10.90;99.90;;;;;;5072455;28;20177;-68
2022/06/14 00:42:46;;;;;;;4.63;2.93;;;11.00;99.90;;;;;;5072549;28;20650;-68
2022/06/14 00:45:11;;;;;;;4.53;2.87;;;11.00;99.90;;;;;;5073935;28;20178;-68
2022/06/14 00:47:45;;;;;;;3.27;2.90;;;11.00;99.90;;;;;;5073577;28;20226;-68
2022/06/14 00:50:17;;;;;;;6.07;3.17;;;10.90;99.90;;;;;;5072318;28;20592;-68
2022/06/14 00:52:49;;;;;;;4.30;2.80;;;10.80;99.90;;;;;;5073423;28;20559;-68
2022/06/14 00:55:49;;;;;;;6.03;3.07;;;10.90;99.90;;;;;;5073966;28;20470;-68
2022/06/14 00:58:37;;;;;;;3.67;2.83;;;10.80;99.90;;;;;;5065197;28;20208;-68
2022/06/14 01:01:15;;;;;;;3.10;2.87;;;10.80;99.90;;;;;;5072219;28;20172;-68
2022/06/14 01:03:50;;;;;;;5.43;3.20;;;10.80;99.90;;;;;;5073592;28;20685;-68
2022/06/14 01:06:32;;;;;;;5.57;3.43;;;10.70;99.90;;;;;;5073964;28;20268;-68
2022/06/14 01:09:07;;;;;;;5.93;3.17;;;10.60;99.90;;;;;;5073752;28;20170;-68
2022/06/14 01:11:41;;;;;;;3.33;3.00;;;10.60;99.90;;;;;;5073607;28;20173;-68
2022/06/14 01:14:10;;;;;;;4.40;3.20;;;10.60;99.90;;;;;;5077295;28;20233;-68
2022/06/14 01:16:37;;;;;;;3.83;3.07;;;10.60;99.90;;;;;;5076145;28;20171;-68
2022/06/14 01:19:09;;;;;;;3.47;2.97;;;10.60;99.90;;;;;;5077262;28;20252;-68
2022/06/14 01:21:35;;;;;;;6.37;3.07;;;10.70;99.90;;;;;;5075957;28;20170;-68
2022/06/14 01:24:01;;;;;;;4.50;2.97;;;10.70;99.90;;;;;;5077187;28;20268;-69
2022/06/14 01:26:29;;;;;;;3.77;3.07;;;10.70;99.90;;;;;;5082281;28;20205;-68
2022/06/14 01:28:59;;;;;;;5.17;3.50;;;10.70;99.90;;;;;;5097352;28;20621;-68
2022/06/14 01:31:27;;;;;;;4.30;3.00;;;10.70;99.90;;;;;;5097964;28;20504;-68
2022/06/14 01:33:58;;;;;;;3.73;3.00;;;10.70;99.90;;;;;;5097470;28;20680;-68
2022/06/14 01:36:29;;;;;;;4.13;3.40;;;10.70;99.90;;;;;;5097610;28;20172;-68
2022/06/14 01:39:00;;;;;;;5.57;3.30;;;10.70;99.90;;;;;;5097699;28;20158;-68
2022/06/14 01:41:50;;;;;;;4.23;3.30;;;10.70;99.90;;;;;;5096023;28;20181;-68
2022/06/14 01:44:31;;;;;;;3.40;3.10;;;10.60;99.90;;;;;;5095975;28;20197;-68
2022/06/14 01:47:18;;;;;;;3.93;3.03;;;10.60;99.90;;;;;;5097489;28;20660;-68
2022/06/14 01:53:10;;;;;;;4.40;3.00;;;10.40;99.90;;;;;;5097846;28;20228;-68
2022/06/14 01:55:45;;;;;;;4.00;3.43;;;10.40;99.90;;;;;;5097535;28;20160;-68
2022/06/14 01:58:26;;;;;;;6.00;3.43;;;10.30;99.90;;;;;;5100132;28;20206;-68
2022/06/14 02:01:06;;;;;;;3.20;3.00;;;10.20;99.90;;;;;;5105127;28;20177;-68
2022/06/14 02:06:44;;;;;;;6.03;3.50;;;10.20;99.90;;;;;;5100425;28;20275;-67
2022/06/14 02:09:22;;;;;;;4.20;3.20;;;10.30;99.90;;;;;;5098571;28;20180;-67
2022/06/14 02:11:48;;;;;;;4.10;3.20;;;10.30;99.90;;;;;;5097936;28;20165;-68
2022/06/14 02:14:31;;;;;;;6.07;3.40;;;10.10;99.90;;;;;;5096896;28;20748;-68
2022/06/14 02:17:26;;;;;;;3.57;3.20;;;10.00;99.90;;;;;;5097239;28;20196;-68
2022/06/14 02:20:04;;;;;;;7.77;3.03;;;9.90;99.90;;;;;;5095480;28;20191;-68
2022/06/14 02:22:38;;;;;;;4.43;3.37;;;9.80;99.90;;;;;;5096770;28;20568;-68
2022/06/14 02:25:12;;;;;;;6.40;3.47;;;9.90;99.90;;;;;;5096073;28;20198;-68
2022/06/14 02:28:05;;;;;;;7.23;3.10;;;9.90;99.90;;;;;;5096066;28;20665;-68
2022/06/14 02:30:37;;;;;;;5.27;3.27;;;10.00;99.90;;;;;;5096243;28;20188;-68
2022/06/14 02:33:29;;;;;;;4.73;3.27;;;10.00;99.90;;;;;;5096130;28;20564;-68
2022/06/14 02:36:10;;;;;;;7.63;3.77;;;10.00;99.90;;;;;;5096144;28;20184;-68
2022/06/14 02:38:36;;;;;;;5.63;3.43;;;9.90;99.90;;;;;;5094854;28;20170;-68
2022/06/14 02:41:15;;;;;;;7.40;3.70;;;9.90;99.90;;;;;;5095555;28;20656;-68
2022/06/14 02:43:45;;;;;;;4.53;3.43;;;9.90;99.90;;;;;;5095921;28;20189;-68
2022/06/14 02:46:20;;;;;;;5.03;3.60;;;10.00;99.90;;;;;;5096259;28;20196;-68
2022/06/14 02:49:22;;;;;;;5.77;4.00;;;9.90;99.90;;;;;;5095798;28;20156;-68
2022/06/14 02:51:58;;;;;;;8.97;3.87;;;9.80;99.90;;;;;;5094763;28;20658;-68
2022/06/14 02:54:42;;;;;;;4.23;3.80;;;9.70;99.90;;;;;;5096436;28;20218;-68
2022/06/14 02:57:10;;;;;;;6.33;3.80;;;9.70;99.90;;;;;;5093997;28;20211;-68
2022/06/14 02:59:46;;;;;;;4.07;3.60;;;9.60;99.90;;;;;;5095709;28;20237;-68
2022/06/14 03:02:21;;;;;;;4.77;3.50;;;9.60;99.90;;;;;;5094385;28;20194;-68
2022/06/14 03:05:02;;;;;;;5.87;3.70;;;9.70;99.90;;;;;;5095421;28;20161;-68
2022/06/14 03:07:44;;;;;;;9.10;3.87;;;9.70;99.90;;;;;;5093939;28;20688;-68
2022/06/14 03:10:10;;;;;;;7.03;3.73;;;9.70;99.90;;;;;;5094036;28;20556;-68
2022/06/14 03:12:52;;;;;;;4.57;3.73;;;9.60;99.90;;;;;;5095221;28;20318;-68
2022/06/14 03:15:50;;;;;;;6.17;4.13;;;9.50;99.90;;;;;;5095095;28;20184;-68
2022/06/14 03:18:39;;;;;;;7.13;4.10;;;9.50;99.90;;;;;;5095428;28;20165;-68
2022/06/14 03:21:11;;;;;;;7.33;3.90;;;9.50;99.90;;;;;;5095375;28;20245;-68
2022/06/14 03:23:46;;;;;;;5.37;3.67;;;9.50;99.90;;;;;;5094730;28;20197;-68
2022/06/14 03:26:34;;;;;;;7.70;3.80;;;9.60;99.90;;;;;;5093161;28;20208;-68
2022/06/14 03:29:11;;;;;;;4.23;3.40;;;9.60;99.90;;;;;;5093666;28;20255;-68
2022/06/14 03:31:45;;;;;;;6.67;3.33;;;9.60;99.90;;;;;;5095204;28;20537;-68
2022/06/14 03:34:14;;;;;;;4.20;3.30;;;9.60;99.90;;;;;;5094887;28;20196;-68
2022/06/14 03:36:41;;;;;;;8.03;3.77;;;9.60;99.90;;;;;;5093886;28;20173;-68
2022/06/14 03:39:14;;;;;;;5.57;3.57;;;9.50;99.90;;;;;;5094675;28;20664;-68
2022/06/14 03:41:46;;;;;;;3.63;3.33;;;9.40;99.90;;;;;;5094979;28;20618;-68
2022/06/14 03:44:14;;;;;;;6.53;3.80;;;9.40;99.90;;;;;;5093362;28;20224;-68
2022/06/14 03:46:44;;;;;;;6.73;3.87;;;9.40;99.90;;;;;;5093324;28;20212;-68
2022/06/14 03:49:12;;;;;;;5.93;3.60;;;9.30;99.90;;;;;;5095175;28;20563;-68
2022/06/14 03:51:43;;;;;;;5.17;3.80;;;9.30;99.90;;;;;;5094633;28;20161;-68
2022/06/14 03:54:22;;;;;;;5.23;3.87;;;9.30;99.90;;;;;;5093530;28;20653;-68
2022/06/14 03:57:28;;;;;;;6.07;3.77;;;9.30;99.90;;;;;;5094435;28;20181;-68
2022/06/14 04:00:32;;;;;;;4.60;3.53;;;9.20;99.90;;;;;;5094329;28;20199;-68
2022/06/14 04:03:01;;;;;;;4.10;3.70;;;9.30;99.90;;;;;;5072491;28;20295;-68
2022/06/14 04:05:44;;;;;;;3.77;3.47;;;9.20;99.90;;;;;;5093257;28;20646;-66
2022/06/14 04:08:16;;;;;;;4.03;3.50;;;9.20;99.90;;;;;;5094472;28;20522;-67
2022/06/14 04:11:00;;;;;;;5.80;4.10;;;9.20;99.90;;;;;;5094338;28;20157;-66
2022/06/14 04:13:49;;;;;;;6.67;3.73;;;9.30;99.90;;;;;;5093420;28;20226;-67
2022/06/14 04:16:25;;;;;;;7.07;4.17;;;9.30;99.90;;;;;;5094151;28;20177;-66
2022/06/14 04:18:50;;;;;;;5.17;4.00;;;9.40;99.90;;;;;;5094170;28;20606;-67
2022/06/14 04:21:38;;;;;;;4.10;3.70;;;9.30;99.90;;;;;;5093507;28;20166;-66
2022/06/14 04:24:25;;;;;;;5.07;3.80;;;9.40;99.90;;;;;;5093639;28;20251;-67
2022/06/14 04:27:16;;;;;;;5.83;4.07;;;9.40;99.90;;;;;;5093138;28;20610;-67
2022/06/14 04:29:48;;;;;;;5.50;3.93;;;9.50;99.90;;;;;;5094112;28;20168;-66
2022/06/14 04:32:31;;;;;;;5.70;3.87;;;9.50;99.90;;;;;;5093277;28;20188;-67
2022/06/14 04:35:25;;;;;;;5.90;4.20;;;9.60;99.90;;;;;;5094428;28;20188;-66
2022/06/14 04:37:59;;;;;;;5.93;3.97;;;9.60;99.90;;;;;;5093680;28;20165;-66
2022/06/14 04:40:34;;;;;;;4.60;3.73;;;9.70;99.90;;;;;;5093603;28;20533;-66
2022/06/14 04:43:09;;;;;;;6.50;4.17;;;9.70;99.90;;;;;;5092978;28;20192;-67
2022/06/14 04:45:40;;;;;;;4.80;4.10;;;9.70;99.90;;;;;;5093257;28;20271;-66
2022/06/14 04:48:20;;;;;;;4.90;4.40;;;9.80;99.90;;;;;;5096305;28;20270;-67
2022/06/14 04:50:58;;;;;;;7.77;3.93;;;9.80;99.90;;;;;;5097437;28;20161;-66
2022/06/14 04:53:44;;;;;;;7.67;4.90;;;9.80;99.90;;;;;;5096117;28;20200;-66
2022/06/14 04:56:17;;;;;;;7.17;4.30;;;9.90;99.90;;;;;;5097177;28;20184;-67
2022/06/14 04:58:50;;;;;;;4.87;4.23;;;10.00;99.90;;;;;;5096041;28;20184;-66
2022/06/14 05:01:24;;;;;;;7.40;4.33;;;10.00;99.90;;;;;;5096099;28;20176;-66
2022/06/14 05:04:01;;;;;;;7.27;4.20;;;10.00;99.90;;;;;;5097210;28;20683;-66
2022/06/14 05:06:42;;;;;;;6.57;4.80;;;10.10;99.90;;;;;;5097568;28;20188;-66
2022/06/14 05:09:25;;;;;;;6.03;4.53;;;10.20;99.90;;;;;;5097413;28;20188;-66
2022/06/14 05:12:01;;;;;;;5.17;4.10;;;10.20;99.90;;;;;;5097269;28;20161;-66
2022/06/14 05:14:41;;;;;;;8.10;4.60;;;10.30;99.90;;;;;;5097107;28;20181;-67
2022/06/14 05:17:19;;;;;;;5.80;3.90;;;10.30;99.90;;;;;;5097553;28;20613;-66
2022/06/14 05:20:18;;;;;;;6.03;4.03;;;10.40;99.90;;;;;;5097136;28;20256;-67
2022/06/14 05:23:06;;;;;;;9.47;4.60;;;10.50;99.90;;;;;;5061180;28;20288;-67
2022/06/14 05:26:02;;;;;;;8.20;4.50;;;10.60;99.90;;;;;;5096842;28;20173;-66
2022/06/14 05:28:40;;;;;;;6.67;4.60;;;10.60;99.90;;;;;;5096021;28;20205;-66
2022/06/14 05:31:34;;;;;;;7.27;5.10;;;10.70;99.90;;;;;;5096949;28;20210;-67
2022/06/14 05:34:06;;;;;;;6.73;5.10;;;10.80;99.90;;;;;;5096798;28;20205;-66
2022/06/14 05:36:43;;;;;;;6.03;4.77;;;10.90;99.90;;;;;;5096394;28;20661;-67
2022/06/14 05:39:21;;;;;;;5.50;4.33;;;10.90;99.90;;;;;;5096725;28;20242;-66
2022/06/14 05:41:53;;;;;;;6.93;5.17;;;11.00;99.90;;;;;;5096684;28;20630;-67
2022/06/14 05:44:43;;;;;;;8.23;4.60;;;11.10;99.90;;;;;;5095517;28;20284;-68
2022/06/14 05:47:14;;;;;;;4.87;4.00;;;11.20;99.90;;;;;;5097299;28;20273;-66
2022/06/14 05:49:48;;;;;;;7.23;5.27;;;11.30;99.90;;;;;;5096578;28;20254;-66
2022/06/14 05:52:13;;;;;;;7.90;5.10;;;11.40;99.90;;;;;;5096607;28;20271;-67
2022/06/14 05:55:06;;;;;;;5.83;4.90;;;11.40;99.90;;;;;;5094938;28;20611;-66
2022/06/14 05:57:40;;;;;;;6.87;4.97;;;11.50;99.90;;;;;;5095598;28;20193;-67
2022/06/14 06:00:06;;;;;;;6.83;4.63;;;11.60;99.90;;;;;;5095189;28;20546;-67
2022/06/14 06:02:44;;;;;;;7.20;4.80;;;11.70;99.90;;;;;;5095917;28;20197;-67
2022/06/14 06:05:29;;;;;;;6.63;4.77;;;11.80;99.90;;;;;;5096834;28;20169;-67
2022/06/14 06:08:20;;;;;;;8.13;4.60;;;11.90;99.90;;;;;;5094555;28;20201;-67
2022/06/14 06:10:49;;;;;;;6.60;5.00;;;12.10;99.90;;;;;;5095887;28;20231;-67
2022/06/14 06:13:22;;;;;;;9.13;5.60;;;12.20;99.90;;;;;;5095527;28;20189;-67
2022/06/14 06:16:05;;;;;;;8.27;4.60;;;12.20;99.90;;;;;;5095710;28;20230;-67
2022/06/14 06:18:33;;;;;;;8.77;4.83;;;12.30;99.90;;;;;;5095910;28;20211;-67
2022/06/14 06:21:10;;;;;;;10.70;5.37;;;12.50;99.90;;;;;;5095658;28;20173;-67
2022/06/14 06:23:59;;;;;;;9.53;5.20;;;12.60;99.90;;;;;;5095713;28;20280;-67
2022/06/14 06:26:30;;;;;;;8.17;5.17;;;12.70;99.90;;;;;;5095446;28;20209;-67
2022/06/14 06:29:03;;;;;;;9.50;5.60;;;12.90;99.90;;;;;;5095827;28;20192;-67
2022/06/14 06:31:35;;;;;;;8.43;5.03;;;13.00;99.90;;;;;;5095867;28;20158;-67
2022/06/14 06:34:06;;;;;;;10.82;4.60;;;13.10;99.90;;;;;;5095167;28;20193;-67
2022/06/14 06:36:57;;;;;;;11.30;5.22;;;13.20;99.90;;;;;;5093873;28;20176;-67
2022/06/14 06:39:35;;;;;;;8.18;5.10;;;13.30;99.90;;;;;;5094007;28;20204;-67
2022/06/14 06:42:21;;;;;;;9.35;4.70;;;13.40;99.90;;;;;;5094972;28;20181;-67
2022/06/14 06:45:05;;;;;;;12.80;5.33;;;13.50;99.90;;;;;;5095743;28;20165;-67
2022/06/14 06:47:52;;;;;;;10.73;4.82;;;13.60;99.90;;;;;;5095117;28;20200;-67
2022/06/14 06:50:25;;;;;;;12.77;5.28;;;13.70;99.90;;;;;;5093829;28;20165;-67
2022/06/14 06:53:00;;;;;;;11.60;4.85;;;13.70;99.90;;;;;;5093817;28;20232;-67
2022/06/14 06:55:53;;;;;;;5.97;3.85;;;13.70;99.90;;;;;;5094993;28;20161;-67
2022/06/14 06:58:37;;;;;;;9.63;3.60;;;13.80;99.90;;;;;;5094892;28;20161;-67
2022/06/14 07:01:15;;;;;;;7.35;3.17;;;13.90;99.90;;;;;;5095024;28;20153;-67
2022/06/14 07:03:46;;;;;;;8.80;3.65;;;14.00;99.90;;;;;;5093556;28;20297;-67
2022/06/14 07:06:26;;;;;;;8.75;3.67;;;14.10;99.90;;;;;;5095350;28;20189;-67
2022/06/14 07:08:56;;;;;;;5.60;3.42;;;14.20;99.90;;;;;;5095017;28;20165;-67
2022/06/14 07:11:27;;;;;;;7.80;3.58;;;14.30;99.90;;;;;;5094473;28;20171;-67
2022/06/14 07:14:04;;;;;;;8.57;3.80;;;14.40;99.90;;;;;;5094337;28;20585;-67
2022/06/14 07:16:34;;;;;;;6.88;3.58;;;14.50;99.90;;;;;;5093312;28;20185;-67
2022/06/14 07:19:24;;;;;;;14.15;4.72;;;14.60;99.90;;;;;;5093299;28;20256;-67
2022/06/14 07:21:58;;;;;;;8.50;3.78;;;14.70;99.90;;;;;;5094618;28;20618;-67
2022/06/14 07:24:33;;;;;;;7.40;4.15;;;14.80;99.90;;;;;;5093180;28;20674;-67
2022/06/14 07:27:07;;;;;;;7.05;3.60;;;14.90;99.90;;;;;;5094240;28;20218;-67
2022/06/14 07:29:43;;;;;;;9.75;4.20;;;15.00;99.90;;;;;;5093056;28;20213;-67
2022/06/14 07:32:35;;;;;;;11.38;4.05;;;15.00;99.90;;;;;;5094298;28;20240;-67
2022/06/14 07:35:01;;;;;;;11.63;3.97;;;14.90;99.90;;;;;;5094479;28;20246;-68
2022/06/14 07:37:45;;;;;;;8.45;4.43;;;14.80;99.90;;;;;;5094456;28;20177;-69
2022/06/14 07:40:21;;;;;;;10.45;4.47;;;14.80;99.90;;;;;;5094945;28;20161;-69
2022/06/14 07:43:01;;;;;;;9.48;4.68;;;14.90;99.90;;;;;;5094303;28;20218;-68
2022/06/14 07:45:42;;;;;;;7.50;4.03;;;15.20;99.90;;;;;;5093131;28;20165;-69
2022/06/14 07:48:15;;;;;;;12.00;4.57;;;15.20;99.90;;;;;;5094572;28;20205;-68
2022/06/14 07:51:10;;;;;;;8.90;3.90;;;15.30;99.90;;;;;;5094863;28;20161;-69
2022/06/14 07:53:38;;;;;;;8.93;3.80;;;15.50;99.90;;;;;;5089100;28;20655;-66
2022/06/14 07:56:13;;;;;;;7.10;3.90;;;15.70;99.90;;;;;;5093764;28;20177;-67
2022/06/14 07:58:50;;;;;;;8.25;4.00;;;15.80;99.90;;;;;;5094331;28;20167;-67
2022/06/14 08:01:29;;;;;;;8.90;3.72;;;15.90;99.90;;;;;;5094255;28;20179;-67
2022/06/14 08:04:01;;;;;;;4.88;3.53;;;16.00;99.90;;;;;;5094526;28;20193;-67
2022/06/14 08:06:46;;;;;;;9.10;3.60;;;16.20;99.90;;;;;;5095432;28;20203;-68
2022/06/14 08:09:40;;;;;;;7.13;3.70;;;16.30;99.90;;;;;;5101427;28;20153;-68
2022/06/14 08:12:15;;;;;;;4.22;3.33;;;16.30;99.90;;;;;;5078351;28;20185;-68
2022/06/14 08:14:47;;;;;;;6.35;2.92;;;16.20;99.90;;;;;;5094502;28;20188;-69
2022/06/14 08:17:20;;;;;;;7.63;3.95;;;16.30;99.90;;;;;;5094164;28;20203;-68
2022/06/14 08:19:55;;;;;;;7.22;3.70;;;16.30;99.90;;;;;;5094059;28;20302;-69
2022/06/14 08:22:34;;;;;;;11.68;4.38;;;16.60;99.90;;;;;;5093381;28;20198;-66
2022/06/14 08:25:12;;;;;;;7.55;3.90;;;16.90;99.90;;;;;;5094504;28;20161;-67
2022/06/14 08:27:45;;;;;;;9.50;3.38;;;17.10;99.90;;;;;;5094519;28;20196;-67
2022/06/14 08:30:23;;;;;;;9.30;3.70;;;17.20;99.90;;;;;;5093533;28;20583;-70
2022/06/14 08:32:55;;;;;;;9.90;3.88;;;17.40;99.90;;;;;;5094642;28;20189;-69
2022/06/14 08:35:31;;;;;;;7.80;3.72;;;17.30;99.90;;;;;;5093848;28;20256;-67
2022/06/14 08:38:17;;;;;;;7.38;3.38;;;17.20;99.90;;;;;;5093955;28;20157;-68
2022/06/14 08:41:20;;;;;;;7.53;3.70;;;17.10;99.90;;;;;;5094041;28;20161;-68
2022/06/14 08:43:51;;;;;;;7.25;3.88;;;17.10;99.90;;;;;;5093424;28;20288;-71
2022/06/14 08:46:44;;;;;;;5.93;3.45;;;17.10;99.90;;;;;;5095041;28;20572;-72
2022/06/14 08:49:42;;;;;;;6.97;3.35;;;17.10;99.90;;;;;;5094128;28;20192;-72
2022/06/14 08:52:28;;;;;;;5.93;3.00;;;17.20;99.90;;;;;;5094527;28;20283;-71
2022/06/14 08:55:15;;;;;;;6.68;3.60;;;17.30;99.90;;;;;;5094251;28;20188;-67
2022/06/14 08:58:05;;;;;;;9.48;3.95;;;17.20;99.90;;;;;;5092973;28;20181;-68
2022/06/14 09:01:05;;;;;;;11.57;3.90;;;17.30;99.90;;;;;;5092004;28;20169;-68
2022/06/14 09:03:49;;;;;;;7.22;3.75;;;17.20;99.90;;;;;;5093362;28;20677;-68
2022/06/14 09:07:01;;;;;;;8.32;4.03;;;17.30;99.90;;;;;;5093331;28;20212;-68
2022/06/14 09:09:41;;;;;;;7.47;3.60;;;17.70;99.90;;;;;;5081736;28;20192;-68
2022/06/14 09:12:13;;;;;;;9.48;3.83;;;18.10;99.90;;;;;;5092937;28;20159;-69
2022/06/14 09:15:07;;;;;;;8.02;3.38;;;18.40;99.90;;;;;;5091819;28;20185;-68
2022/06/14 09:17:51;;;;;;;7.18;3.00;;;18.90;99.90;;;;;;5093394;28;20198;-68
2022/06/14 09:20:37;;;;;;;6.78;3.00;;;19.40;99.90;;;;;;5091826;28;20629;-68
2022/06/14 09:23:17;;;;;;;6.45;3.30;;;20.00;99.90;;;;;;5093715;28;20288;-72
2022/06/14 09:26:21;;;;;;;7.53;3.53;;;20.50;99.90;;;;;;5094354;28;20165;-74
2022/06/14 09:28:50;;;;;;;9.73;3.45;;;20.50;99.90;;;;;;5093126;28;20194;-73
2022/06/14 09:31:42;;;;;;;11.38;3.97;;;20.00;99.90;;;;;;5092356;28;20181;-68
2022/06/14 09:34:35;;;;;;;10.77;5.18;;;19.40;99.90;;;;;;5095477;28;20212;-67
2022/06/14 09:37:29;;;;;;;11.13;3.70;;;18.70;99.90;;;;;;5096540;28;20543;-68
2022/06/14 09:40:00;;;;;;;8.43;3.72;;;18.20;99.90;;;;;;5097149;28;20591;-68
2022/06/14 09:43:05;;;;;;;12.40;3.90;;;17.90;99.90;;;;;;5096105;28;20195;-68
2022/06/14 09:45:55;;;;;;;8.50;3.70;;;18.20;99.90;;;;;;5093443;28;20188;-68
2022/06/14 09:48:40;;;;;;;7.75;3.40;;;18.70;99.90;;;;;;5096384;28;20206;-68
2022/06/14 09:51:26;;;;;;;6.07;3.10;;;19.20;99.90;;;;;;5096285;28;20157;-68
2022/06/14 09:54:22;;;;;;;6.47;3.17;;;19.50;99.90;;;;;;5096771;28;20766;-68
2022/06/14 09:56:58;;;;;;;7.47;3.53;;;20.00;99.90;;;;;;5096241;28;20182;-68
2022/06/14 09:59:48;;;;;;;8.07;3.03;;;20.60;99.90;;;;;;5094706;28;20241;-68
2022/06/14 10:02:36;;;;;;;6.05;3.10;;;21.10;99.90;;;;;;5095995;28;20686;-68
2022/06/14 10:05:10;;;;;;;6.57;3.53;;;21.00;99.90;;;;;;5096379;28;20165;-68
2022/06/14 10:08:04;;;;;;;10.40;4.13;;;21.30;99.90;;;;;;5096732;28;20574;-69
2022/06/14 10:10:35;;;;;;;7.78;3.75;;;21.00;99.90;;;;;;5095925;28;20192;-69
2022/06/14 10:13:07;;;;;;;8.10;4.10;;;20.40;99.90;;;;;;5095598;28;20563;-68
2022/06/14 10:16:02;;;;;;;11.18;4.65;;;19.70;99.90;;;;;;5095756;28;20196;-68
2022/06/14 10:18:40;;;;;;;10.15;4.40;;;19.20;99.90;;;;;;5076341;28;20615;-68
2022/06/14 10:21:13;;;;;;;10.10;4.82;;;18.50;99.90;;;;;;5096150;28;20237;-68
2022/06/14 10:23:54;;;;;;;10.35;4.43;;;17.90;99.90;;;;;;5096092;28;20591;-68
2022/06/14 10:29:53;;;;;;;13.35;7.20;;;17.60;99.90;;;;;;5095311;28;20214;-68
2022/06/14 10:32:46;;;;;;;13.45;9.07;;;18.00;99.90;;;;;;5095418;28;20165;-68
2022/06/14 10:35:41;;;;;;;14.35;8.65;;;18.60;99.90;;;;;;5095518;28;20158;-68
2022/06/14 10:38:18;;;;;;;9.95;8.88;;;19.00;99.90;;;;;;5095452;28;20190;-68
2022/06/14 10:41:19;;;;;;;15.23;8.60;;;19.20;99.90;;;;;;5094232;28;20172;-67
2022/06/14 10:44:23;;;;;;;11.52;7.45;;;19.30;99.90;;;;;;5095144;28;20193;-67
2022/06/14 10:47:39;;;;;;;16.27;7.72;;;19.20;99.90;;;;;;5095345;28;20197;-67
2022/06/14 10:50:11;;;;;;;8.80;5.15;;;18.80;99.90;;;;;;5095544;28;20157;-68
2022/06/14 10:52:51;;;;;;;9.27;5.80;;;19.20;99.90;;;;;;5093729;28;20196;-68
2022/06/14 10:55:28;;;;;;;9.90;5.05;;;19.50;99.90;;;;;;5095359;28;20165;-68
2022/06/14 10:58:10;;;;;;;7.80;5.50;;;20.00;99.90;;;;;;5094592;28;20219;-68
2022/06/14 11:00:36;;;;;;;9.35;5.75;;;20.40;99.90;;;;;;5093671;28;20218;-68
2022/06/14 11:03:48;;;;;;;9.88;6.10;;;20.70;99.90;;;;;;5094757;28;20276;-68
2022/06/14 11:06:20;;;;;;;10.35;6.38;;;21.10;99.90;;;;;;5095082;28;20271;-68
2022/06/14 11:09:28;;;;;;;14.75;6.43;;;21.40;99.90;;;;;;5095037;28;20153;-66
2022/06/14 11:12:09;;;;;;;14.27;7.03;;;21.70;99.90;;;;;;5072420;28;20181;-68
2022/06/14 11:14:46;;;;;;;14.05;8.63;;;21.80;99.90;;;;;;5088973;28;20199;-68
2022/06/14 11:17:51;;;;;;;11.00;9.15;;;21.60;99.90;;;;;;5094630;28;20683;-68
2022/06/14 11:20:17;;;;;;;10.20;6.07;;;20.90;99.90;;;;;;5094848;28;20169;-68
2022/06/14 11:23:14;;;;;;;14.63;9.40;;;20.60;99.90;;;;;;5094504;28;20250;-68
2022/06/14 11:25:43;;;;;;;14.25;9.45;;;20.20;99.90;;;;;;5085624;28;20190;-68
2022/06/14 11:28:47;;;;;;;17.20;9.55;;;19.90;99.90;;;;;;5094202;28;20353;-68
2022/06/14 11:31:24;;;;;;;17.05;9.98;;;19.70;99.90;;;;;;5091199;28;20196;-68
2022/06/14 11:34:03;;;;;;;14.30;8.77;;;19.50;99.90;;;;;;5094259;28;20191;-68
2022/06/14 11:36:44;;;;;;;12.73;8.57;;;19.80;99.90;;;;;;5094169;28;20637;-68
2022/06/14 11:39:38;;;;;;;11.10;7.80;;;20.20;99.90;;;;;;5092872;28;20173;-68
2022/06/14 11:42:12;;;;;;;12.02;8.43;;;20.70;99.90;;;;;;5094243;28;20169;-68
2022/06/14 11:44:44;;;;;;;9.02;7.28;;;21.10;99.90;;;;;;5093901;28;20164;-68
2022/06/14 11:47:18;;;;;;;14.35;9.23;;;21.50;99.90;;;;;;5092653;28;20581;-68
2022/06/14 11:49:56;;;;;;;16.25;9.43;;;21.70;99.90;;;;;;5094010;28;20156;-68
2022/06/14 11:52:33;;;;;;;13.15;8.43;;;21.70;99.90;;;;;;5092580;28;20201;-68
2022/06/14 11:55:26;;;;;;;12.55;6.55;;;21.70;99.90;;;;;;5092567;28;20176;-68
2022/06/14 11:58:08;;;;;;;12.07;7.32;;;22.10;99.90;;;;;;5091349;28;20185;-68
2022/06/14 12:00:46;;;;;;;13.98;8.68;;;22.10;99.90;;;;;;5092711;28;20614;-68
2022/06/14 12:03:25;;;;;;;13.98;8.38;;;22.00;99.90;;;;;;5094257;28;20235;-68
2022/06/14 12:06:02;;;;;;;11.63;7.68;;;22.20;99.90;;;;;;5094070;28;20173;-68
2022/06/14 12:08:30;;;;;;;13.93;7.50;;;22.60;99.90;;;;;;5092456;28;20161;-68
2022/06/14 12:11:01;;;;;;;12.93;8.15;;;22.60;99.90;;;;;;5092339;28;20238;-68
2022/06/14 12:13:30;;;;;;;12.38;7.40;;;22.30;99.90;;;;;;5092075;28;20193;-68
2022/06/14 12:16:18;;;;;;;9.32;6.60;;;22.10;99.90;;;;;;5092233;28;20204;-68
2022/06/14 12:19:04;;;;;;;16.50;6.55;;;22.30;99.90;;;;;;5093566;28;20173;-68
2022/06/14 12:21:48;;;;;;;11.45;6.45;;;22.60;99.90;;;;;;5093519;28;20168;-68
2022/06/14 12:26:34;;;;;;;10.25;5.28;;;23.20;99.90;;;;;;5093470;28;20203;-68
2022/06/14 12:27:08;;;;;;;8.13;5.60;;;23.80;99.90;;;;;;5093070;28;20255;-68
2022/06/14 12:29:40;;;;;;;9.43;6.13;;;24.40;99.90;;;;;;5093242;28;20211;-68
2022/06/14 12:32:39;;;;;;;8.05;4.88;;;24.60;99.90;;;;;;5093675;28;20166;-69
2022/06/14 12:35:13;;;;;;;8.15;5.40;;;25.00;99.90;;;;;;5094041;28;20195;-68
2022/06/14 12:38:01;;;;;;;10.52;6.30;;;25.20;99.90;;;;;;5092123;28;20260;-68
2022/06/14 12:41:03;;;;;;;8.23;6.13;;;25.40;99.90;;;;;;5093863;28;20163;-68
2022/06/14 12:43:45;;;;;;;11.07;6.60;;;25.70;99.90;;;;;;5093166;28;20649;-69
2022/06/14 12:46:15;;;;;;;10.18;5.97;;;25.70;99.90;;;;;;5093225;28;20162;-68
2022/06/14 12:49:16;;;;;;;11.75;6.43;;;25.70;99.90;;;;;;5093934;28;20510;-68
2022/06/14 12:52:05;;;;;;;10.75;7.10;;;25.90;99.90;;;;;;5093534;28;20156;-68
2022/06/14 12:55:03;;;;;;;11.10;7.32;;;26.00;99.90;;;;;;5082991;28;20548;-69
2022/06/14 12:57:50;;;;;;;8.40;5.55;;;25.80;99.90;;;;;;5085101;28;20193;-68
2022/06/14 13:00:33;;;;;;;12.90;6.25;;;25.80;99.90;;;;;;5093223;28;20648;-68
2022/06/14 13:03:27;;;;;;;7.05;5.07;;;26.00;99.90;;;;;;5093082;28;20250;-68
2022/06/14 13:06:12;;;;;;;9.05;6.53;;;26.30;99.90;;;;;;5093550;28;20196;-68
2022/06/14 13:09:08;;;;;;;9.65;5.82;;;26.50;99.90;;;;;;5095461;28;20153;-69
2022/06/14 13:11:50;;;;;;;10.88;5.70;;;26.50;99.90;;;;;;5097764;28;20146;-68
2022/06/14 13:14:25;;;;;;;14.73;5.35;;;26.70;99.90;;;;;;5096799;28;20250;-69
2022/06/14 13:17:29;;;;;;;11.60;6.25;;;26.90;99.90;;;;;;5097387;28;20173;-69
2022/06/14 13:20:09;;;;;;;6.97;4.35;;;27.00;99.90;;;;;;5095758;28;20207;-69
2022/06/14 13:22:53;;;;;;;11.63;5.22;;;27.10;99.90;;;;;;5096923;28;20197;-69
2022/06/14 13:25:21;;;;;;;10.40;5.47;;;27.40;99.90;;;;;;5096964;28;20153;-68
2022/06/14 13:28:31;;;;;;;6.65;4.30;;;27.20;99.90;;;;;;5096610;28;20209;-70
2022/06/14 13:31:30;;;;;;;8.82;4.30;;;27.50;99.90;;;;;;5091824;28;20177;-69
2022/06/14 13:34:35;;;;;;;8.80;4.30;;;27.80;99.90;;;;;;5097129;28;20209;-67
2022/06/14 13:37:25;;;;;;;9.57;5.88;;;28.10;99.90;;;;;;5088580;28;20185;-68
2022/06/14 13:40:05;;;;;;;7.70;5.07;;;28.40;99.90;;;;;;5095482;28;20205;-69
2022/06/14 13:42:51;;;;;;;10.10;5.35;;;28.20;99.90;;;;;;5097063;28;20282;-68
2022/06/14 13:45:38;;;;;;;7.80;5.63;;;28.30;99.90;;;;;;5096539;28;20196;-65
2022/06/14 13:48:16;;;;;;;8.70;4.70;;;28.10;99.90;;;;;;5095290;28;20201;-66
2022/06/14 13:50:56;;;;;;;8.48;5.43;;;28.10;99.90;;;;;;5096532;28;20161;-66
2022/06/14 13:53:34;;;;;;;9.68;6.03;;;28.30;99.90;;;;;;5096624;28;20192;-67
2022/06/14 13:56:03;;;;;;;12.63;7.03;;;28.50;99.90;;;;;;5096410;28;20590;-68
2022/06/14 13:58:40;;;;;;;9.23;5.90;;;28.20;99.90;;;;;;5094854;28;20718;-65
2022/06/14 14:01:15;;;;;;;10.73;5.85;;;28.20;99.90;;;;;;5096485;28;20622;-67